Terminal Aerodrome Forecast
Issued by NWS

Home | Current Version | Previous Version | Graphics & Text | Print | Product List | Glossary On
Versions: 1 2 3 4 5 6 7 8 9 10 11 12 13 14 15 16 17 18 19 20 21 22 23 24 25
000
FTUS43 KGRB 071700
TAFCWA
TAF
KCWA 071724Z 0718/0818 29012G18KT P6SM VCTS SCT035CB BKN060
     FM072200 27011G16KT P6SM VCTS SCT035CB BKN080
     FM080100 26006KT P6SM -SHRA SCT025 OVC050
      TEMPO 0802/0806 2SM TSRA BR BKN025CB
     FM080600 26005KT 5SM -SHRA BR SCT008 OVC018
     FM081000 29004KT 5SM BR SCT006 OVC012
     FM081500 29011KT P6SM VCSH SCT020 BKN040=

USA.gov is the U.S. government's official web portal to all federal, state and local government web resources and services.